Hendersonville, NC

11:06 PM EDT on August 31, 2015 (GMT -0400)
Maplewood Ct off Hwy 191 in City | | Change Station
CLOSE
Current Station
Personal Weather Station
Location: Hendersonville, NC
Elevation: 2133 ft
Nearby Weather Stations

Elev 2133 ft 35.33 °N, 82.48 °W | Updated 1 second ago

Overcast
Overcast
67.8 °F
Feels Like 67.8 °F
N
0.0
Wind Variable Wind from West
Gusts 0.0 mph

Today
High -- | Low -- °F
--% Chance of Precip.
Yesterday
High -- | Low -- °F
Precip. -- in
7:01 AM 7:58 PM
Waning Gibbous, 92% visible
Pressure 30.11 in
Visibility 10.0 miles
Clouds Clear
Dew Point 67 °F
Humidity 96%
Rainfall in
Snow Depth Not available.
UV 0 out of 12
Pollen 8.40 out of 12
Air Quality Not available.
Flu Activity Not available.
METAR KAVL 010254Z AUTO 00000KT 10SM CLR 22/19 A3018 RMK AO2 SLP195 T02170189 53013
Pressure 30.11 in
Visibility 10.0 miles
Clouds Clear
Dew Point 67 °F
Humidity 96%
Rainfall in
Snow Depth Not available.
UV 0 out of 12
Pollen 8.40 out of 12
Air Quality Not available.
Flu Activity Not available.
METAR KAVL 010254Z AUTO 00000KT 10SM CLR 22/19 A3018 RMK AO2 SLP195 T02170189 53013

10-Day Weather Forecast

×

Almanac

Astronomy

Aug. 31, 2015 Rise Set
Actual Time
Civil Twilight
Nautical Twilight
Astronomical Twilight
Moon
Length of Visible Light
Length of Day
Tomorrow will be .
, % of the Moon is Illuminated

Today's Extremes

State Highs State Lows

Community

WunderPhotos

Upload Photos

1,851,463 photos uploaded!

WunderBlogs® & News

Nearby

Air Quality

  Air Quality AQ Index Pollutant
Not available.

Snow Depth

Station Depth Elevation

Earthquake Activity

City Distance Mag. Time & Date
Minimum magnitude displayed is 2.5.

Coastal Water Temperatures

Place Temperature

Stations

Nearby Weather Stations

Station Location Temp. Windchill Dew Point Humidity Wind Precip. Elev Updated Type